Gracechurch Harp — V2CN7 — position and weather

sailwx.info

Track history (hours):
 
Tides and Currents Weather Stations Pressure Air Temp Water Temp Dewpoint Dewpoint Depression Visibility Wind Speed Wind Dir Waves Ship Positions

Gracechurch Harp

Last reported at 2017-Oct-16 19:53 UTC. Time now 2017-Oct-19 03:54 UTC.
Position N 25°32' W 079°27'.

; draft 6.3 m.

Type: Ship. MMSI: 305055000.

Date/timePositionNaut miles runAvg speedWind from/ knotsBaromVisibWave heightAir tempDewpointWater temp
2017-Oct-16 19:53N 25°32' W 079°27'615.2
2017-Oct-16 19:31N 25°38' W 079°28'815.0
2017-Oct-16 19:00N 25°46' W 079°29'612.7
2017-Oct-16 18:30N 25°51' W 079°33'5 9.2
2017-Oct-16 18:00N 25°53' W 079°37'510.8
2017-Oct-16 17:30N 25°55' W 079°42'815.1
2017-Oct-16 17:00N 25°59' W 079°50'714.9
2017-Oct-16 16:30N 26°01' W 079°58'714.0
2017-Oct-16 16:00N 26°05' W 080°04'2 4.5
2017-Oct-16 15:30N 26°04' W 080°07'0 0.5
2017-Oct-16 15:00N 26°04' W 080°07'0 0.0
2017-Oct-16 14:30N 26°04' W 080°07'0 0.0
2017-Oct-16 13:29N 26°04' W 080°07'0 0.0
2017-Oct-16 13:00N 26°04' W 080°07'0 0.0
2017-Oct-16 12:30N 26°04' W 080°07'0 0.0
2017-Oct-16 11:57N 26°04' W 080°07'0 0.0
2017-Oct-16 11:27N 26°04' W 080°07'0 0.0
2017-Oct-16 11:00N 26°04' W 080°07'0 0.0
2017-Oct-16 10:30N 26°04' W 080°07'0 0.0
2017-Oct-16 10:00N 26°04' W 080°07'0 0.0
2017-Oct-16 09:30N 26°04' W 080°07'0 0.0
2017-Oct-16 09:00N 26°04' W 080°07'0 0.0
2017-Oct-16 08:30N 26°04' W 080°07'0 0.0
2017-Oct-16 08:00N 26°04' W 080°07'0 0.0
2017-Oct-16 07:30N 26°04' W 080°07'0 0.0
2017-Oct-16 07:00N 26°04' W 080°07'0 0.0
2017-Oct-16 06:30N 26°04' W 080°07'0 0.0
2017-Oct-16 06:00N 26°04' W 080°07'0 0.0
2017-Oct-16 05:30N 26°04' W 080°07'0 0.0
2017-Oct-16 05:00N 26°04' W 080°07'0 0.0
2017-Oct-16 04:31N 26°04' W 080°07'0 0.0
2017-Oct-16 04:00N 26°04' W 080°07'0 0.0
2017-Oct-16 03:30N 26°04' W 080°07'0 0.0
2017-Oct-16 03:00N 26°04' W 080°07'2 3.1
2017-Oct-16 02:30N 26°06' W 080°07'510.3
2017-Oct-16 02:01N 26°02' W 080°03'816.2
2017-Oct-16 01:30N 25°54' W 079°60'917.7
2017-Oct-16 01:00N 25°46' W 079°56'918.0
2017-Oct-16 00:31N 25°38' W 079°53'918.2
2017-Oct-16 00:01N 25°29' W 079°49'917.8
2017-Oct-15 23:30N 25°21' W 079°46'  
2017-Oct-09 20:02N 25°40' W 079°28'414.7
2017-Oct-09 19:47N 25°44' W 079°29'811.5
2017-Oct-09 19:06N 25°49' W 079°35'2 9.2
2017-Oct-09 18:53N 25°50' W 079°37'4 9.4
2017-Oct-09 18:30N 25°52' W 079°41'714.5
2017-Oct-09 18:00N 25°55' W 079°48'715.1
2017-Oct-09 17:30N 25°59' W 079°55'714.9
2017-Oct-09 17:01N 26°03' W 080°02'5 9.9
2017-Oct-09 16:30N 26°06' W 080°07'1 2.7
2017-Oct-09 15:59N 26°04' W 080°07'0 0.1
2017-Oct-09 15:29N 26°04' W 080°07'0 0.0
2017-Oct-09 14:59N 26°04' W 080°07'0 0.0
2017-Oct-09 14:29N 26°04' W 080°07'0 0.0
2017-Oct-09 13:56N 26°04' W 080°07'0 0.0
2017-Oct-09 13:30N 26°04' W 080°07'0 0.0
2017-Oct-09 13:00N 26°04' W 080°07'0 0.0
2017-Oct-09 12:30N 26°04' W 080°07'0 0.0
2017-Oct-09 12:00N 26°04' W 080°07'0 0.0
2017-Oct-09 11:12N 26°04' W 080°07'0 0.0
2017-Oct-09 11:00N 26°04' W 080°07'0 0.0
2017-Oct-09 10:30N 26°04' W 080°07'0 0.0
2017-Oct-09 10:00N 26°04' W 080°07'0 0.0
2017-Oct-09 09:30N 26°04' W 080°07'0 0.0
2017-Oct-09 09:00N 26°04' W 080°07'0 0.0
2017-Oct-09 08:18N 26°04' W 080°07'0 0.0
2017-Oct-09 08:00N 26°04' W 080°07'0 0.0
2017-Oct-09 07:30N 26°04' W 080°07'0 0.0
2017-Oct-09 07:00N 26°04' W 080°07'0 0.0
2017-Oct-09 06:30N 26°04' W 080°07'0 0.0
2017-Oct-09 06:00N 26°04' W 080°07'2 3.3
2017-Oct-09 05:30N 26°06' W 080°06'611.8
2017-Oct-09 05:01N 26°01' W 080°02'918.2
2017-Oct-09 04:30N 25°52' W 079°59'918.0
2017-Oct-09 04:01N 25°44' W 079°55'918.1
2017-Oct-09 03:31N 25°36' W 079°51'918.3
2017-Oct-09 03:00N 25°27' W 079°47'6416.3
2017-Oct-08 23:06N 24°26' W 079°26'217.3
2017-Oct-08 22:58N 24°24' W 079°26'817.4
2017-Oct-08 22:30N 24°16' W 079°23'  
Track history (hours):
 
Tides and Currents Weather Stations Pressure Air Temp Water Temp Dewpoint Dewpoint Depression Visibility Wind Speed Wind Dir Waves Ship Positions

Gracechurch Harp

Last reported at 2017-Oct-16 19:53 UTC. Time now 2017-Oct-19 03:54 UTC.
Position N 25°32' W 079°27'.

; draft 6.3 m.

Type: Ship. MMSI: 305055000.

Date/timePositionNaut miles runAvg speedWind from/ knotsBaromVisibWave heightAir tempDewpointWater temp
2017-Oct-16 19:53N 25°32' W 079°27'615.2
2017-Oct-16 19:31N 25°38' W 079°28'815.0
2017-Oct-16 19:00N 25°46' W 079°29'612.7
2017-Oct-16 18:30N 25°51' W 079°33'5 9.2
2017-Oct-16 18:00N 25°53' W 079°37'510.8
2017-Oct-16 17:30N 25°55' W 079°42'815.1
2017-Oct-16 17:00N 25°59' W 079°50'714.9
2017-Oct-16 16:30N 26°01' W 079°58'714.0
2017-Oct-16 16:00N 26°05' W 080°04'2 4.5
2017-Oct-16 15:30N 26°04' W 080°07'0 0.5
2017-Oct-16 15:00N 26°04' W 080°07'0 0.0
2017-Oct-16 14:30N 26°04' W 080°07'0 0.0
2017-Oct-16 13:29N 26°04' W 080°07'0 0.0
2017-Oct-16 13:00N 26°04' W 080°07'0 0.0
2017-Oct-16 12:30N 26°04' W 080°07'0 0.0
2017-Oct-16 11:57N 26°04' W 080°07'0 0.0
2017-Oct-16 11:27N 26°04' W 080°07'0 0.0
2017-Oct-16 11:00N 26°04' W 080°07'0 0.0
2017-Oct-16 10:30N 26°04' W 080°07'0 0.0
2017-Oct-16 10:00N 26°04' W 080°07'0 0.0
2017-Oct-16 09:30N 26°04' W 080°07'0 0.0
2017-Oct-16 09:00N 26°04' W 080°07'0 0.0
2017-Oct-16 08:30N 26°04' W 080°07'0 0.0
2017-Oct-16 08:00N 26°04' W 080°07'0 0.0
2017-Oct-16 07:30N 26°04' W 080°07'0 0.0
2017-Oct-16 07:00N 26°04' W 080°07'0 0.0
2017-Oct-16 06:30N 26°04' W 080°07'0 0.0
2017-Oct-16 06:00N 26°04' W 080°07'0 0.0
2017-Oct-16 05:30N 26°04' W 080°07'0 0.0
2017-Oct-16 05:00N 26°04' W 080°07'0 0.0
2017-Oct-16 04:31N 26°04' W 080°07'0 0.0
2017-Oct-16 04:00N 26°04' W 080°07'0 0.0
2017-Oct-16 03:30N 26°04' W 080°07'0 0.0
2017-Oct-16 03:00N 26°04' W 080°07'2 3.1
2017-Oct-16 02:30N 26°06' W 080°07'510.3
2017-Oct-16 02:01N 26°02' W 080°03'816.2
2017-Oct-16 01:30N 25°54' W 079°60'917.7
2017-Oct-16 01:00N 25°46' W 079°56'918.0
2017-Oct-16 00:31N 25°38' W 079°53'918.2
2017-Oct-16 00:01N 25°29' W 079°49'917.8
2017-Oct-15 23:30N 25°21' W 079°46'  
2017-Oct-09 20:02N 25°40' W 079°28'414.7
2017-Oct-09 19:47N 25°44' W 079°29'811.5
2017-Oct-09 19:06N 25°49' W 079°35'2 9.2
2017-Oct-09 18:53N 25°50' W 079°37'4 9.4
2017-Oct-09 18:30N 25°52' W 079°41'714.5
2017-Oct-09 18:00N 25°55' W 079°48'715.1
2017-Oct-09 17:30N 25°59' W 079°55'714.9
2017-Oct-09 17:01N 26°03' W 080°02'5 9.9
2017-Oct-09 16:30N 26°06' W 080°07'1 2.7
2017-Oct-09 15:59N 26°04' W 080°07'0 0.1
2017-Oct-09 15:29N 26°04' W 080°07'0 0.0
2017-Oct-09 14:59N 26°04' W 080°07'0 0.0
2017-Oct-09 14:29N 26°04' W 080°07'0 0.0
2017-Oct-09 13:56N 26°04' W 080°07'0 0.0
2017-Oct-09 13:30N 26°04' W 080°07'0 0.0
2017-Oct-09 13:00N 26°04' W 080°07'0 0.0
2017-Oct-09 12:30N 26°04' W 080°07'0 0.0
2017-Oct-09 12:00N 26°04' W 080°07'0 0.0
2017-Oct-09 11:12N 26°04' W 080°07'0 0.0
2017-Oct-09 11:00N 26°04' W 080°07'0 0.0
2017-Oct-09 10:30N 26°04' W 080°07'0 0.0
2017-Oct-09 10:00N 26°04' W 080°07'0 0.0
2017-Oct-09 09:30N 26°04' W 080°07'0 0.0
2017-Oct-09 09:00N 26°04' W 080°07'0 0.0
2017-Oct-09 08:18N 26°04' W 080°07'0 0.0
2017-Oct-09 08:00N 26°04' W 080°07'0 0.0
2017-Oct-09 07:30N 26°04' W 080°07'0 0.0
2017-Oct-09 07:00N 26°04' W 080°07'0 0.0
2017-Oct-09 06:30N 26°04' W 080°07'0 0.0
2017-Oct-09 06:00N 26°04' W 080°07'2 3.3
2017-Oct-09 05:30N 26°06' W 080°06'611.8
2017-Oct-09 05:01N 26°01' W 080°02'918.2
2017-Oct-09 04:30N 25°52' W 079°59'918.0
2017-Oct-09 04:01N 25°44' W 079°55'918.1
2017-Oct-09 03:31N 25°36' W 079°51'918.3
2017-Oct-09 03:00N 25°27' W 079°47'6416.3
2017-Oct-08 23:06N 24°26' W 079°26'217.3
2017-Oct-08 22:58N 24°24' W 079°26'817.4
2017-Oct-08 22:30N 24°16' W 079°23'  

Dump ship's entire track history